UAL340 KATL-KDEN
Flight info
| Callsign | UAL340 |
|---|---|
| Flight time | N/A |
| Altitude | 34000 |
| Route | CUTTN2 HANKO MEM PER GCK KIISS CLASH5 |
| Aircraft | B752/M-SDE2E3FGHIJ3J4J7RWXY/LB1 |
Departure
| Time | 2026-05-03 22:02 |
|---|---|
| Airport | Hartsfield Jackson Atlanta International Airport (KATL) |
Arrival
| Time | N/A |
|---|---|
| Airport | Denver International Airport (KDEN) |
| Time | Latitude | Longitude | Altitude | Speed | Heading |
|---|---|---|---|---|---|
| 2026-05-03 21:36 | 33.64223 | -84.43861 | 1019 ft | 0 kts | 269° |
| 2026-05-03 21:51 | 33.64223 | -84.43847 | 1019 ft | 2 kts | 273° |
| 2026-05-03 21:52 | 33.64223 | -84.43829 | 1018 ft | 2 kts | 268° |
| 2026-05-03 21:52 | 33.64223 | -84.43811 | 1018 ft | 2 kts | 269° |
| 2026-05-03 21:52 | 33.64224 | -84.43793 | 1017 ft | 2 kts | 281° |
| 2026-05-03 21:52 | 33.64216 | -84.43778 | 1017 ft | 1 kts | 330° |
| 2026-05-03 21:53 | 33.64210 | -84.43775 | 1017 ft | 1 kts | 346° |
| 2026-05-03 21:53 | 33.64206 | -84.43774 | 1017 ft | 0 kts | 341° |
| 2026-05-03 21:54 | 33.64207 | -84.43774 | 1017 ft | 1 kts | 341° |
| 2026-05-03 21:55 | 33.64238 | -84.43783 | 1017 ft | 4 kts | 352° |
| 2026-05-03 21:55 | 33.64265 | -84.43785 | 1017 ft | 5 kts | 358° |
| 2026-05-03 21:55 | 33.64312 | -84.43787 | 1017 ft | 7 kts | 0° |
| 2026-05-03 21:55 | 33.64360 | -84.43786 | 1017 ft | 6 kts | 0° |
| 2026-05-03 21:56 | 33.64368 | -84.43786 | 1017 ft | 1 kts | 0° |
| 2026-05-03 21:56 | 33.64404 | -84.43787 | 1017 ft | 8 kts | 356° |
| 2026-05-03 21:56 | 33.64446 | -84.43767 | 1017 ft | 6 kts | 65° |
| 2026-05-03 21:56 | 33.64457 | -84.43702 | 1016 ft | 11 kts | 84° |
| 2026-05-03 21:57 | 33.64460 | -84.43568 | 1013 ft | 19 kts | 91° |
| 2026-05-03 21:57 | 33.64458 | -84.43402 | 1011 ft | 20 kts | 90° |
| 2026-05-03 21:57 | 33.64459 | -84.43233 | 1008 ft | 20 kts | 90° |
| 2026-05-03 21:57 | 33.64458 | -84.43053 | 1006 ft | 22 kts | 91° |
| 2026-05-03 21:58 | 33.64460 | -84.42864 | 1003 ft | 22 kts | 89° |
| 2026-05-03 21:58 | 33.64469 | -84.42677 | 1000 ft | 22 kts | 90° |
| 2026-05-03 21:58 | 33.64469 | -84.42478 | 993 ft | 25 kts | 90° |
| 2026-05-03 21:58 | 33.64473 | -84.42263 | 984 ft | 27 kts | 76° |
| 2026-05-03 21:59 | 33.64545 | -84.42049 | 976 ft | 28 kts | 92° |
| 2026-05-03 21:59 | 33.64544 | -84.41814 | 971 ft | 28 kts | 90° |
| 2026-05-03 21:59 | 33.64543 | -84.41582 | 971 ft | 26 kts | 91° |
| 2026-05-03 21:59 | 33.64540 | -84.41370 | 974 ft | 24 kts | 91° |
| 2026-05-03 22:00 | 33.64541 | -84.41178 | 976 ft | 22 kts | 89° |
| 2026-05-03 22:00 | 33.64543 | -84.41007 | 978 ft | 19 kts | 89° |
| 2026-05-03 22:00 | 33.64545 | -84.40852 | 976 ft | 12 kts | 77° |
| 2026-05-03 22:00 | 33.64568 | -84.40764 | 978 ft | 9 kts | 82° |
| 2026-05-03 22:01 | 33.64569 | -84.40632 | 976 ft | 18 kts | 88° |
| 2026-05-03 22:01 | 33.64649 | -84.40570 | 978 ft | 13 kts | 336° |
| 2026-05-03 22:01 | 33.64680 | -84.40661 | 980 ft | 21 kts | 271° |
| 2026-05-03 22:01 | 33.64678 | -84.41074 | 984 ft | 78 kts | 270° |
| 2026-05-03 22:02 | 33.64676 | -84.41946 | 976 ft | 132 kts | 270° |
| 2026-05-03 22:02 | 33.64679 | -84.43236 | 1063 ft | 171 kts | 270° |
| 2026-05-03 22:02 | 33.64689 | -84.44722 | 1582 ft | 182 kts | 271° |
| 2026-05-03 22:02 | 33.64736 | -84.46162 | 2391 ft | 176 kts | 278° |
| 2026-05-03 22:03 | 33.65020 | -84.47681 | 2620 ft | 196 kts | 286° |
| 2026-05-03 22:03 | 33.65367 | -84.49290 | 3090 ft | 203 kts | 285° |
| 2026-05-03 22:03 | 33.65696 | -84.50953 | 3566 ft | 211 kts | 284° |
| 2026-05-03 22:03 | 33.66034 | -84.52730 | 3878 ft | 231 kts | 284° |
| 2026-05-03 22:04 | 33.66412 | -84.54700 | 4268 ft | 248 kts | 283° |
| 2026-05-03 22:04 | 33.66777 | -84.56724 | 4888 ft | 256 kts | 283° |
| 2026-05-03 22:04 | 33.67178 | -84.58892 | 5378 ft | 271 kts | 283° |
| 2026-05-03 22:04 | 33.67554 | -84.61027 | 6503 ft | 257 kts | 282° |
| 2026-05-03 22:05 | 33.67904 | -84.63152 | 7025 ft | 270 kts | 283° |
| 2026-05-03 22:05 | 33.68280 | -84.65361 | 7702 ft | 274 kts | 283° |
| 2026-05-03 22:05 | 33.68667 | -84.67556 | 8582 ft | 271 kts | 283° |
| 2026-05-03 22:05 | 33.69050 | -84.69813 | 9179 ft | 280 kts | 282° |
| 2026-05-03 22:06 | 33.69422 | -84.72096 | 9893 ft | 283 kts | 283° |
| 2026-05-03 22:06 | 33.69809 | -84.74380 | 10786 ft | 280 kts | 283° |
| 2026-05-03 22:06 | 33.70277 | -84.76714 | 11008 ft | 302 kts | 288° |
| 2026-05-03 22:06 | 33.70931 | -84.79216 | 11316 ft | 321 kts | 288° |
| 2026-05-03 22:07 | 33.71619 | -84.81842 | 11596 ft | 340 kts | 288° |
| 2026-05-03 22:07 | 33.72341 | -84.84560 | 12340 ft | 344 kts | 288° |
| 2026-05-03 22:07 | 33.73068 | -84.87282 | 13093 ft | 347 kts | 288° |
| 2026-05-03 22:07 | 33.73593 | -84.89242 | 13557 ft | 351 kts | 288° |
| 2026-05-03 22:08 | 33.74339 | -84.92019 | 14270 ft | 354 kts | 288° |
| 2026-05-03 22:08 | 33.75090 | -84.94820 | 14981 ft | 355 kts | 288° |
| 2026-05-03 22:08 | 33.75853 | -84.97662 | 15652 ft | 357 kts | 288° |
| 2026-05-03 22:08 | 33.76609 | -85.00480 | 16266 ft | 360 kts | 288° |
| 2026-05-03 22:09 | 33.77379 | -85.03354 | 16850 ft | 364 kts | 288° |
| 2026-05-03 22:09 | 33.78157 | -85.06259 | 17500 ft | 365 kts | 288° |
| 2026-05-03 22:09 | 33.78943 | -85.09197 | 17999 ft | 370 kts | 288° |
| 2026-05-03 22:10 | 33.80515 | -85.15084 | 19184 ft | 373 kts | 287° |
| 2026-05-03 22:10 | 33.81301 | -85.18032 | 19680 ft | 378 kts | 287° |
| 2026-05-03 22:10 | 33.81903 | -85.21139 | 20259 ft | 379 kts | 277° |
| 2026-05-03 22:10 | 33.82080 | -85.24289 | 20707 ft | 384 kts | 273° |
| 2026-05-03 22:11 | 33.82212 | -85.27482 | 21275 ft | 386 kts | 273° |
| 2026-05-03 22:11 | 33.82353 | -85.30708 | 21774 ft | 389 kts | 274° |